Time;durP1;ratioP1;P1;durP2;ratioP2;P2;SDS_P1;SDS_P2;PMS_P1;PMS_P2;Temp;Humidity;BMP_temperature;BMP_pressure;BME280_temperature;BME280_humidity;BME280_pressure;Samples;Min_cycle;Max_cycle;Signal;HPM_P1;HPM_P2
2023/06/20 00:01:03;;;;;;;2.50;2.38;;;;;;;-146.25;100.00;57403.91;5029977;28;20383;-84
2023/06/20 00:03:30;;;;;;;2.45;2.25;;;;;;;-146.25;100.00;57403.91;5028768;28;20210;-85
2023/06/20 00:05:57;;;;;;;2.13;1.92;;;;;;;-146.25;100.00;57403.91;5027004;28;20211;-83
2023/06/20 00:08:24;;;;;;;2.33;2.22;;;;;;;-146.25;100.00;57403.91;5021833;28;20210;-84
2023/06/20 00:10:51;;;;;;;2.63;2.42;;;;;;;-146.25;100.00;57403.91;5021471;28;20285;-86
2023/06/20 00:13:18;;;;;;;2.35;2.13;;;;;;;-146.25;100.00;57403.91;5019477;28;20292;-83
2023/06/20 00:15:45;;;;;;;2.47;2.28;;;;;;;-146.25;100.00;57403.91;5016445;28;20647;-85
2023/06/20 00:18:14;;;;;;;2.47;2.28;;;;;;;-146.25;100.00;57403.91;5009085;28;20197;-86
2023/06/20 00:20:41;;;;;;;2.40;2.20;;;;;;;-146.25;100.00;57403.91;5019573;28;20216;-85
2023/06/20 00:23:10;;;;;;;2.55;2.35;;;;;;;-146.25;100.00;57403.91;5015960;28;20287;-85
2023/06/20 00:25:37;;;;;;;2.73;2.53;;;;;;;-146.25;100.00;57403.91;5028054;28;20213;-85
2023/06/20 00:28:04;;;;;;;3.72;2.30;;;;;;;-146.25;100.00;57403.91;5022596;28;20205;-85
2023/06/20 00:30:31;;;;;;;2.67;2.47;;;;;;;-146.25;100.00;57403.91;5020997;28;20687;-84
2023/06/20 00:32:59;;;;;;;3.75;3.45;;;;;;;-146.25;100.00;57403.91;5017085;28;20209;-84
2023/06/20 00:35:27;;;;;;;3.38;3.15;;;;;;;-146.25;100.00;57403.91;5012132;28;20723;-85
2023/06/20 00:37:54;;;;;;;2.60;2.28;;;;;;;-146.25;100.00;57403.91;5009229;28;20207;-85
2023/06/20 00:40:21;;;;;;;3.80;2.80;;;;;;;-146.25;100.00;57403.91;5008761;28;20204;-85
2023/06/20 00:42:48;;;;;;;2.65;2.45;;;;;;;-146.25;100.00;57403.91;5008215;28;20235;-84
2023/06/20 00:45:32;;;;;;;2.75;2.55;;;;;;;-146.25;100.00;57403.91;5009036;28;20253;-86
2023/06/20 00:48:01;;;;;;;2.67;2.47;;;;;;;-146.25;100.00;57403.91;5008910;28;20195;-84
2023/06/20 00:50:30;;;;;;;2.22;2.03;;;;;;;-146.25;100.00;57403.91;5023327;28;20272;-85
2023/06/20 00:53:00;;;;;;;2.25;2.15;;;;;;;-146.25;100.00;57403.91;5028615;28;20268;-86
2023/06/20 00:55:28;;;;;;;2.83;2.63;;;;;;;-146.25;100.00;57403.91;5029484;28;20207;-84
2023/06/20 00:57:58;;;;;;;4.55;2.95;;;;;;;-146.25;100.00;57403.91;5029853;28;20288;-84
2023/06/20 01:00:25;;;;;;;3.17;2.88;;;;;;;-146.25;100.00;57403.91;5028409;28;20290;-84
2023/06/20 01:02:55;;;;;;;3.10;2.42;;;;;;;-146.25;100.00;57403.91;5028314;28;20234;-85
2023/06/20 01:05:26;;;;;;;5.00;2.50;;;;;;;-146.25;100.00;57403.91;5028970;28;20211;-84
2023/06/20 01:08:03;;;;;;;2.58;2.45;;;;;;;-146.25;100.00;57403.91;5028506;28;20211;-85
2023/06/20 01:10:41;;;;;;;2.80;2.60;;;;;;;-146.25;100.00;57403.91;5028366;28;20205;-84
2023/06/20 01:13:19;;;;;;;2.53;2.33;;;;;;;-146.25;100.00;57403.91;5028505;28;20315;-86
2023/06/20 01:15:54;;;;;;;2.37;2.17;;;;;;;-146.25;100.00;57403.91;5028070;28;20196;-85
2023/06/20 01:18:30;;;;;;;3.60;2.30;;;;;;;-146.25;100.00;57403.91;5027904;28;20199;-84
2023/06/20 01:21:02;;;;;;;3.17;2.87;;;;;;;-146.25;100.00;57403.91;5027649;28;20219;-85
2023/06/20 01:23:35;;;;;;;2.07;1.97;;;;;;;-146.25;100.00;57403.91;5027965;28;20234;-85
2023/06/20 01:26:05;;;;;;;3.83;2.93;;;;;;;-146.25;100.00;57403.91;5028360;28;20193;-85
2023/06/20 01:28:40;;;;;;;2.67;2.53;;;;;;;-146.25;100.00;57403.91;5027496;28;20216;-84
2023/06/20 01:31:11;;;;;;;2.83;2.43;;;;;;;-146.25;100.00;57403.91;5028244;28;20205;-86
2023/06/20 01:33:47;;;;;;;2.20;2.10;;;;;;;-146.25;100.00;57403.91;5027740;28;20209;-84
2023/06/20 01:36:18;;;;;;;2.83;2.63;;;;;;;-146.25;100.00;57403.91;5028141;28;20264;-85
2023/06/20 01:38:49;;;;;;;4.57;3.00;;;;;;;-146.25;100.00;57403.91;5027624;28;20210;-85
2023/06/20 01:41:20;;;;;;;7.33;3.00;;;;;;;-146.25;100.00;57403.91;5027403;28;20640;-84
2023/06/20 01:43:48;;;;;;;3.80;2.80;;;;;;;-146.25;100.00;57403.91;5027414;28;20557;-84
2023/06/20 01:46:17;;;;;;;3.20;3.00;;;;;;;-146.25;100.00;57403.91;5028663;28;20279;-84
2023/06/20 01:48:46;;;;;;;4.23;2.37;;;;;;;-146.25;100.00;57403.91;5028037;28;20262;-85
2023/06/20 01:51:15;;;;;;;2.60;2.40;;;;;;;-146.25;100.00;57403.91;5007069;28;20213;-85
2023/06/20 01:53:43;;;;;;;4.20;3.20;;;;;;;-146.25;100.00;57403.91;5007735;28;20268;-84
2023/06/20 01:56:14;;;;;;;3.00;2.70;;;;;;;-146.25;100.00;57403.91;5008690;28;20202;-84
2023/06/20 01:58:41;;;;;;;3.20;2.90;;;;;;;-146.25;100.00;57403.91;5007779;28;20218;-83
2023/06/20 02:01:09;;;;;;;2.90;2.70;;;;;;;-146.25;100.00;57403.91;5007976;28;20226;-83
2023/06/20 02:03:40;;;;;;;2.50;2.30;;;;;;;-146.25;100.00;57403.91;5008031;28;20235;-85
2023/06/20 02:06:07;;;;;;;4.03;2.97;;;;;;;-146.25;100.00;57403.91;5008656;28;20662;-85
2023/06/20 02:08:37;;;;;;;2.47;2.37;;;;;;;-146.25;100.00;57403.91;5007339;28;20252;-84
2023/06/20 02:11:05;;;;;;;3.70;2.87;;;;;;;-146.25;100.00;57403.91;5008233;28;20227;-85
2023/06/20 02:13:35;;;;;;;2.70;2.50;;;;;;;-146.25;100.00;57403.91;5007747;28;20217;-84
2023/06/20 02:16:06;;;;;;;3.30;2.87;;;;;;;-146.25;100.00;57403.91;5008124;28;20643;-84
2023/06/20 02:18:33;;;;;;;4.50;3.30;;;;;;;-146.25;100.00;57403.91;5008343;28;20200;-83
2023/06/20 02:21:04;;;;;;;2.50;2.30;;;;;;;-146.25;100.00;57403.91;5008252;28;20539;-85
2023/06/20 02:23:34;;;;;;;2.97;2.77;;;;;;;-146.25;100.00;57403.91;5006862;28;20235;-84
2023/06/20 02:26:08;;;;;;;2.80;2.60;;;;;;;-146.25;100.00;57403.91;5008383;28;20209;-86
2023/06/20 02:28:42;;;;;;;2.60;2.50;;;;;;;-146.25;100.00;57403.91;5006682;28;20764;-85
2023/06/20 02:31:14;;;;;;;2.77;2.57;;;;;;;-146.25;100.00;57403.91;5007186;28;20735;-85
2023/06/20 02:33:44;;;;;;;4.60;3.07;;;;;;;-146.25;100.00;57403.91;5010198;28;20260;-84
2023/06/20 02:36:12;;;;;;;3.63;2.97;;;;;;;-146.25;100.00;57403.91;5028415;28;20590;-84
2023/06/20 02:38:39;;;;;;;3.30;3.07;;;;;;;-146.25;100.00;57403.91;5027370;28;20213;-84
2023/06/20 02:41:06;;;;;;;6.47;3.90;;;;;;;-146.25;100.00;57403.91;5028227;28;20283;-85
2023/06/20 02:43:33;;;;;;;3.90;3.27;;;;;;;-146.25;100.00;57403.91;5030507;28;20229;-86
2023/06/20 02:46:10;;;;;;;3.43;3.13;;;;;;;-146.25;100.00;57403.91;5030897;28;20200;-85
2023/06/20 02:48:46;;;;;;;8.10;3.33;;;;;;;-146.25;100.00;57403.91;5031926;28;20208;-85
2023/06/20 02:51:23;;;;;;;3.60;2.30;;;;;;;-146.25;100.00;57403.91;5050044;28;20293;-84
2023/06/20 02:53:58;;;;;;;3.73;3.43;;;;;;;-146.25;100.00;57403.91;5050894;28;20191;-84
2023/06/20 02:56:29;;;;;;;4.97;3.17;;;;;;;-146.25;100.00;57403.91;5051616;28;20249;-84
2023/06/20 02:59:00;;;;;;;5.27;3.40;;;;;;;-146.25;100.00;57403.91;5051121;28;20258;-85
2023/06/20 03:01:32;;;;;;;3.60;3.17;;;;;;;-146.25;100.00;57403.91;5050828;28;20200;-85
2023/06/20 03:04:03;;;;;;;5.87;3.87;;;;;;;-146.25;100.00;57403.91;5050927;28;20227;-84
2023/06/20 03:06:31;;;;;;;3.37;3.17;;;;;;;-146.25;100.00;57403.91;5050689;28;20201;-85
2023/06/20 03:09:02;;;;;;;4.07;3.03;;;;;;;-146.25;100.00;57403.91;5050886;28;20204;-86
2023/06/20 03:11:30;;;;;;;5.18;4.18;;;;;;;-146.25;100.00;57403.91;5051043;28;20228;-87
2023/06/20 03:13:57;;;;;;;4.53;3.65;;;;;;;-146.25;100.00;57403.91;5050769;28;20512;-85
2023/06/20 03:16:26;;;;;;;3.75;3.45;;;;;;;-146.25;100.00;57403.91;5050754;28;20200;-86
2023/06/20 03:18:54;;;;;;;3.40;3.10;;;;;;;-146.25;100.00;57403.91;5051024;28;20199;-86
2023/06/20 03:21:21;;;;;;;5.22;3.63;;;;;;;-146.25;100.00;57403.91;5049387;28;20210;-86
2023/06/20 03:23:48;;;;;;;3.08;2.88;;;;;;;-146.25;100.00;57403.91;5050181;28;20226;-86
2023/06/20 03:26:15;;;;;;;4.72;3.97;;;;;;;-146.25;100.00;57403.91;5050771;28;20737;-86
2023/06/20 03:28:42;;;;;;;5.72;3.92;;;;;;;-146.25;100.00;57403.91;5049428;28;20195;-86
2023/06/20 03:31:09;;;;;;;4.50;3.35;;;;;;;-146.25;100.00;57403.91;5050587;28;20211;-85
2023/06/20 03:33:36;;;;;;;5.63;3.97;;;;;;;-146.25;100.00;57403.91;5050225;28;20202;-86
2023/06/20 03:36:05;;;;;;;3.70;3.50;;;;;;;-146.25;100.00;57403.91;5049380;28;20199;-86
2023/06/20 03:38:31;;;;;;;4.18;3.08;;;;;;;-146.25;100.00;57403.91;5049691;28;20253;-86
2023/06/20 03:40:59;;;;;;;4.38;4.00;;;;;;;-146.25;100.00;57403.91;5050432;28;20623;-86
2023/06/20 03:43:26;;;;;;;3.55;3.20;;;;;;;-146.25;100.00;57403.91;5048568;28;20267;-86
2023/06/20 03:45:53;;;;;;;4.22;3.83;;;;;;;-146.25;100.00;57403.91;5050599;28;20202;-87
2023/06/20 03:48:21;;;;;;;3.80;3.47;;;;;;;-146.25;100.00;57403.91;5052253;28;20207;-85
2023/06/20 03:50:48;;;;;;;3.88;3.58;;;;;;;-146.25;100.00;57403.91;5052071;28;20261;-86
2023/06/20 03:53:17;;;;;;;4.30;3.63;;;;;;;-146.25;100.00;57403.91;5071071;28;20191;-85
2023/06/20 03:55:44;;;;;;;4.75;4.35;;;;;;;-146.25;100.00;57403.91;5074400;28;20214;-87
2023/06/20 03:58:11;;;;;;;4.57;4.18;;;;;;;-146.25;100.00;57403.91;5053073;28;20667;-86
2023/06/20 04:00:39;;;;;;;4.22;3.88;;;;;;;-146.25;100.00;57403.91;5050060;28;20268;-87
2023/06/20 04:03:06;;;;;;;30.38;12.05;;;;;;;-146.25;100.00;57403.91;5048743;28;20258;-86
2023/06/20 04:05:32;;;;;;;3.97;3.78;;;;;;;-146.25;100.00;57403.91;5049219;28;20207;-86
2023/06/20 04:08:00;;;;;;;4.32;3.92;;;;;;;-146.25;100.00;57403.91;5049320;28;20199;-86
2023/06/20 04:10:29;;;;;;;5.00;4.60;;;;;;;-146.25;100.00;57403.91;5049550;28;20370;-87
2023/06/20 04:12:56;;;;;;;5.35;4.32;;;;;;;-146.25;100.00;57403.91;5049127;28;20231;-86
2023/06/20 04:15:22;;;;;;;4.30;3.90;;;;;;;-146.25;100.00;57403.91;5048991;28;20207;-85
2023/06/20 04:17:49;;;;;;;4.32;3.95;;;;;;;-146.25;100.00;57403.91;5049885;28;20265;-87
2023/06/20 04:20:16;;;;;;;5.78;4.00;;;;;;;-146.25;100.00;57403.91;5049067;28;20226;-86
2023/06/20 04:22:45;;;;;;;4.43;4.05;;;;;;;-146.25;100.00;57403.91;5048406;28;20285;-86
2023/06/20 04:25:12;;;;;;;4.03;3.72;;;;;;;-146.25;100.00;57403.91;5049600;28;20656;-85
2023/06/20 04:27:41;;;;;;;7.60;4.13;;;;;;;-146.25;100.00;57403.91;5049527;28;20206;-86
2023/06/20 04:30:09;;;;;;;4.18;3.88;;;;;;;-146.25;100.00;57403.91;5046779;28;20741;-86
2023/06/20 04:32:37;;;;;;;4.15;3.83;;;;;;;-146.25;100.00;57403.91;5049048;28;20199;-85
2023/06/20 04:35:05;;;;;;;4.72;4.13;;;;;;;-146.25;100.00;57403.91;5040482;28;20678;-85
2023/06/20 04:37:32;;;;;;;4.47;4.07;;;;;;;-146.25;100.00;57403.91;5040744;28;20211;-85
2023/06/20 04:39:59;;;;;;;4.43;3.85;;;;;;;-146.25;100.00;57403.91;5039167;28;20223;-85
2023/06/20 04:42:26;;;;;;;4.10;3.90;;;;;;;-146.25;100.00;57403.91;5035436;28;20860;-86
2023/06/20 04:44:54;;;;;;;4.07;3.78;;;;;;;-146.25;100.00;57403.91;5035461;28;20208;-86
2023/06/20 04:47:21;;;;;;;4.85;4.32;;;;;;;-146.25;100.00;57403.91;5048741;28;20741;-86
2023/06/20 04:49:50;;;;;;;4.03;3.63;;;;;;;-146.25;100.00;57403.91;5048245;28;20320;-86
2023/06/20 04:52:17;;;;;;;4.88;3.58;;;;;;;-146.25;100.00;57403.91;5048233;28;20717;-85
2023/06/20 04:54:44;;;;;;;4.65;4.25;;;;;;;-146.25;100.00;57403.91;5048845;28;20223;-86
2023/06/20 04:57:11;;;;;;;4.53;4.30;;;;;;;-146.25;100.00;57403.91;5047862;28;20221;-85
2023/06/20 04:59:39;;;;;;;5.15;4.60;;;;;;;-146.25;100.00;57403.91;5049150;28;20198;-85
2023/06/20 05:02:07;;;;;;;4.40;4.10;;;;;;;-146.25;100.00;57403.91;5048196;28;20658;-86
2023/06/20 05:04:36;;;;;;;6.53;3.78;;;;;;;-146.25;100.00;57403.91;5046853;28;20722;-85
2023/06/20 05:07:21;;;;;;;5.10;4.60;;;;;;;-146.25;100.00;57403.91;5041257;28;20206;-87
2023/06/20 05:09:50;;;;;;;4.40;4.10;;;;;;;-146.25;100.00;57403.91;5028422;28;20594;-86
2023/06/20 05:12:17;;;;;;;5.05;4.72;;;;;;;-146.25;100.00;57403.91;5027554;28;20732;-87
2023/06/20 05:14:47;;;;;;;4.57;4.20;;;;;;;-146.25;100.00;57403.91;5028139;28;20620;-86
2023/06/20 05:17:15;;;;;;;8.95;4.60;;;;;;;-146.25;100.00;57403.91;5028761;28;20199;-86
2023/06/20 05:19:43;;;;;;;5.20;4.80;;;;;;;-146.25;100.00;57403.91;5028158;28;20625;-85
2023/06/20 05:22:10;;;;;;;12.63;6.03;;;;;;;-146.25;100.00;57403.91;5028572;28;20557;-85
2023/06/20 05:24:37;;;;;;;4.75;4.35;;;;;;;-146.25;100.00;57403.91;5028478;28;20231;-86
2023/06/20 05:27:05;;;;;;;5.00;4.60;;;;;;;-146.25;100.00;57403.91;5028386;28;20209;-85
2023/06/20 05:29:32;;;;;;;5.13;4.25;;;;;;;-146.25;100.00;57403.91;5028046;28;20199;-88
2023/06/20 05:31:59;;;;;;;5.65;4.55;;;;;;;-146.25;100.00;57403.91;5026116;28;20201;-85
2023/06/20 05:34:27;;;;;;;4.60;4.30;;;;;;;-146.25;100.00;57403.91;5026016;28;20203;-85
2023/06/20 05:36:54;;;;;;;4.90;4.50;;;;;;;-146.25;100.00;57403.91;5026510;28;20537;-86
2023/06/20 05:39:22;;;;;;;5.38;4.93;;;;;;;-146.25;100.00;57403.91;5026385;28;20219;-86
2023/06/20 05:41:49;;;;;;;7.20;4.20;;;;;;;-146.25;100.00;57403.91;5025848;28;20272;-84
2023/06/20 05:44:16;;;;;;;4.63;4.32;;;;;;;-146.25;100.00;57403.91;5025337;28;20235;-85
2023/06/20 05:46:42;;;;;;;4.93;4.53;;;;;;;-146.25;100.00;57403.91;5026927;28;20258;-86
2023/06/20 05:49:11;;;;;;;4.95;4.55;;;;;;;-146.25;100.00;57403.91;5027904;28;20227;-87
2023/06/20 05:51:40;;;;;;;5.55;4.68;;;;;;;-146.25;100.00;57403.91;5028530;28;20218;-85
2023/06/20 05:54:07;;;;;;;6.43;5.70;;;;;;;-146.25;100.00;57403.91;5028744;28;20277;-85
2023/06/20 05:56:35;;;;;;;4.95;4.45;;;;;;;-146.25;100.00;57403.91;5028042;28;20202;-86
2023/06/20 05:59:03;;;;;;;6.00;4.88;;;;;;;-146.25;100.00;57403.91;5028189;28;20562;-85
2023/06/20 06:01:30;;;;;;;5.13;4.72;;;;;;;-146.25;100.00;57403.91;5028510;28;20208;-85
2023/06/20 06:03:58;;;;;;;4.72;4.32;;;;;;;-146.25;100.00;57403.91;5028092;28;20231;-85
2023/06/20 06:06:25;;;;;;;4.38;4.18;;;;;;;-146.25;100.00;57403.91;5027964;28;20707;-86
2023/06/20 06:08:55;;;;;;;6.20;4.68;;;;;;;-146.25;100.00;57403.91;5028396;28;20589;-87
2023/06/20 06:11:22;;;;;;;6.45;4.70;;;;;;;-146.25;100.00;57403.91;5028031;28;20230;-85
2023/06/20 06:13:49;;;;;;;4.97;4.68;;;;;;;-146.25;100.00;57403.91;5028140;28;20223;-86
2023/06/20 06:16:17;;;;;;;5.45;4.55;;;;;;;-146.25;100.00;57403.91;5030145;28;20196;-85
2023/06/20 06:18:44;;;;;;;7.30;5.90;;;;;;;-146.25;100.00;57403.91;5031659;28;20216;-84
2023/06/20 06:21:11;;;;;;;5.60;5.15;;;;;;;-146.25;100.00;57403.91;5031693;28;20547;-85
2023/06/20 06:23:38;;;;;;;9.23;5.60;;;;;;;-146.25;100.00;57403.91;5031645;28;20227;-86
2023/06/20 06:26:07;;;;;;;5.55;5.20;;;;;;;-146.25;100.00;57403.91;5032630;28;20200;-86
2023/06/20 06:28:34;;;;;;;6.10;5.45;;;;;;;-146.25;100.00;57403.91;5032697;28;20567;-85
2023/06/20 06:31:10;;;;;;;6.28;5.78;;;;;;;-146.25;100.00;57403.91;5032314;28;20672;-84
2023/06/20 06:33:40;;;;;;;6.32;5.72;;;;;;;-146.25;100.00;57403.91;5032685;28;20201;-85
2023/06/20 06:36:08;;;;;;;6.63;5.40;;;;;;;-146.25;100.00;57403.91;5031441;28;20207;-85
2023/06/20 06:38:34;;;;;;;5.68;5.20;;;;;;;-146.25;100.00;57403.91;5031509;28;20231;-85
2023/06/20 06:41:02;;;;;;;5.43;4.90;;;;;;;-146.25;100.00;57403.91;5040411;28;20623;-85
2023/06/20 06:43:31;;;;;;;5.63;5.15;;;;;;;-146.25;100.00;57403.91;5067679;28;20272;-86
2023/06/20 06:45:58;;;;;;;6.20;5.65;;;;;;;-146.25;100.00;57403.91;5070263;28;20222;-86
2023/06/20 06:48:24;;;;;;;5.47;5.03;;;;;;;-146.25;100.00;57403.91;5070137;28;20723;-84
2023/06/20 06:50:51;;;;;;;5.43;5.03;;;;;;;-146.25;100.00;57403.91;5070200;28;20238;-85
2023/06/20 06:53:19;;;;;;;7.90;5.10;;;;;;;-146.25;100.00;57403.91;5069489;28;20714;-85
2023/06/20 06:55:47;;;;;;;4.78;4.40;;;;;;;-146.25;100.00;57403.91;5070869;28;20237;-85
2023/06/20 06:58:13;;;;;;;4.95;4.50;;;;;;;-146.25;100.00;57403.91;5070371;28;20246;-86
2023/06/20 07:00:42;;;;;;;4.93;4.53;;;;;;;-146.25;100.00;57403.91;5071046;28;20610;-85
2023/06/20 07:03:10;;;;;;;4.65;4.20;;;;;;;-146.25;100.00;57403.91;5069343;28;20222;-87
2023/06/20 07:05:38;;;;;;;6.60;5.32;;;;;;;-146.25;100.00;57403.91;5070834;28;20257;-84
2023/06/20 07:08:05;;;;;;;5.28;4.57;;;;;;;-146.25;100.00;57403.91;5068977;28;20238;-86
2023/06/20 07:10:33;;;;;;;4.80;4.10;;;;;;;-146.25;100.00;57403.91;5070584;28;20652;-85
2023/06/20 07:13:00;;;;;;;4.03;3.70;;;;;;;-146.25;100.00;57403.91;5069840;28;20233;-86
2023/06/20 07:15:27;;;;;;;4.18;3.88;;;;;;;-146.25;100.00;57403.91;5069572;28;20218;-85
2023/06/20 07:17:56;;;;;;;3.85;3.60;;;;;;;-146.25;100.00;57403.91;5068980;28;20230;-88
2023/06/20 07:20:23;;;;;;;3.63;3.47;;;;;;;-146.25;100.00;57403.91;5069890;28;20291;-87
2023/06/20 07:22:50;;;;;;;3.10;3.00;;;;;;;-146.25;100.00;57403.91;5059763;28;20707;-87
2023/06/20 07:25:19;;;;;;;3.85;3.55;;;;;;;-146.25;100.00;57403.91;5049274;28;20711;-85
2023/06/20 07:27:46;;;;;;;3.78;3.47;;;;;;;-146.25;100.00;57403.91;5049722;28;20242;-86
2023/06/20 07:30:15;;;;;;;3.38;3.28;;;;;;;-146.25;100.00;57403.91;5048704;28;20225;-86
2023/06/20 07:32:42;;;;;;;3.05;2.95;;;;;;;-146.25;100.00;57403.91;5049453;28;20223;-86
2023/06/20 07:35:12;;;;;;;4.18;3.88;;;;;;;-146.25;100.00;57403.91;5049003;28;20223;-85
2023/06/20 07:37:41;;;;;;;3.53;3.33;;;;;;;-146.25;100.00;57403.91;5049188;28;20660;-85
2023/06/20 07:40:09;;;;;;;3.67;3.38;;;;;;;-146.25;100.00;57403.91;5048662;28;20227;-88
2023/06/20 07:42:37;;;;;;;3.45;3.20;;;;;;;-146.25;100.00;57403.91;5048363;28;20280;-87
2023/06/20 07:45:05;;;;;;;6.47;3.35;;;;;;;-146.25;100.00;57403.91;5049154;28;20238;-86
2023/06/20 07:47:32;;;;;;;3.58;3.35;;;;;;;-146.25;100.00;57403.91;5048594;28;20219;-85
2023/06/20 07:50:01;;;;;;;3.58;3.38;;;;;;;-146.25;100.00;57403.91;5048333;28;20302;-85
2023/06/20 07:52:31;;;;;;;3.10;2.90;;;;;;;-146.25;100.00;57403.91;5052371;28;20292;-86
2023/06/20 07:55:01;;;;;;;3.05;2.85;;;;;;;-146.25;100.00;57403.91;5049900;28;20939;-85
2023/06/20 07:57:28;;;;;;;3.10;3.00;;;;;;;-146.25;100.00;57403.91;5055235;28;20219;-86
2023/06/20 07:59:56;;;;;;;2.97;2.80;;;;;;;-146.25;100.00;57403.91;5060081;28;20297;-86
2023/06/20 08:02:24;;;;;;;3.17;2.97;;;;;;;-146.25;100.00;57403.91;5057365;28;20568;-85
2023/06/20 08:04:54;;;;;;;3.13;3.03;;;;;;;-146.25;100.00;57403.91;5048751;28;20238;-85
2023/06/20 08:07:22;;;;;;;3.38;3.00;;;;;;;-146.25;100.00;57403.91;5049205;28;20226;-86
2023/06/20 08:09:51;;;;;;;3.38;3.20;;;;;;;-146.25;100.00;57403.91;5047971;28;20227;-86
2023/06/20 08:12:21;;;;;;;3.40;3.20;;;;;;;-146.25;100.00;57403.91;5047583;28;20281;-85
2023/06/20 08:14:52;;;;;;;3.83;3.53;;;;;;;-146.25;100.00;57403.91;5048861;28;20230;-87
2023/06/20 08:17:22;;;;;;;4.45;3.35;;;;;;;-146.25;100.00;57403.91;5049007;28;20218;-85
2023/06/20 08:19:54;;;;;;;3.38;3.08;;;;;;;-146.25;100.00;57403.91;5048740;28;20234;-84
2023/06/20 08:22:24;;;;;;;3.17;3.05;;;;;;;-146.25;100.00;57403.91;5048747;28;20679;-86
2023/06/20 08:24:52;;;;;;;2.80;2.70;;;;;;;-146.25;100.00;57403.91;5048018;28;20258;-86
2023/06/20 08:27:20;;;;;;;3.40;3.20;;;;;;;-146.25;100.00;57403.91;5052911;28;20222;-86
2023/06/20 08:29:47;;;;;;;3.05;2.85;;;;;;;-146.25;100.00;57403.91;5048522;28;20219;-86
2023/06/20 08:32:14;;;;;;;3.40;3.20;;;;;;;-146.25;100.00;57403.91;5048249;28;20226;-86
2023/06/20 08:34:42;;;;;;;3.00;2.90;;;;;;;-146.25;100.00;57403.91;5047211;28;20254;-84
2023/06/20 08:37:12;;;;;;;4.03;3.08;;;;;;;-146.25;100.00;57403.91;5047617;28;20305;-84
2023/06/20 08:39:39;;;;;;;3.63;3.33;;;;;;;-146.25;100.00;57403.91;5047648;28;20219;-82
2023/06/20 08:42:08;;;;;;;3.58;3.28;;;;;;;-146.25;100.00;57403.91;5047967;28;20278;-84
2023/06/20 08:44:35;;;;;;;3.17;2.88;;;;;;;-146.25;100.00;57403.91;5048556;28;20317;-85
2023/06/20 08:47:03;;;;;;;3.17;3.08;;;;;;;-146.25;100.00;57403.91;5047917;28;20923;-85
2023/06/20 08:49:30;;;;;;;3.20;3.10;;;;;;;-146.25;100.00;57403.91;5048345;28;20242;-86
2023/06/20 08:52:00;;;;;;;3.85;3.55;;;;;;;-146.25;100.00;57403.91;5047383;28;20229;-85
2023/06/20 08:54:32;;;;;;;3.55;3.33;;;;;;;-146.25;100.00;57403.91;5048812;28;20743;-84
2023/06/20 08:57:01;;;;;;;3.03;2.92;;;;;;;-146.25;100.00;57403.91;5048527;28;21804;-86
2023/06/20 08:59:29;;;;;;;2.90;2.80;;;;;;;-146.25;100.00;57403.91;5049236;28;20281;-85
2023/06/20 09:01:56;;;;;;;2.83;2.72;;;;;;;-146.25;100.00;57403.91;5047945;28;20230;-84
2023/06/20 09:04:24;;;;;;;3.63;3.40;;;;;;;-146.25;100.00;57403.91;5048005;28;20280;-84
2023/06/20 09:06:51;;;;;;;3.03;2.92;;;;;;;-146.25;100.00;57403.91;5047125;28;20223;-85
2023/06/20 09:09:19;;;;;;;3.95;3.72;;;;;;;-146.25;100.00;57403.91;5048077;28;20631;-86
2023/06/20 09:11:52;;;;;;;3.08;2.97;;;;;;;-146.25;100.00;57403.91;5046807;28;20655;-84
2023/06/20 09:14:20;;;;;;;2.65;2.55;;;;;;;-146.25;100.00;57403.91;5047927;28;20237;-86
2023/06/20 09:16:50;;;;;;;3.45;3.28;;;;;;;-146.25;100.00;57403.91;5047214;28;20307;-85
2023/06/20 09:19:17;;;;;;;3.97;3.67;;;;;;;-146.25;100.00;57403.91;5047846;28;20227;-83
2023/06/20 09:21:44;;;;;;;3.53;3.33;;;;;;;-146.25;100.00;57403.91;5067220;28;20230;-85
2023/06/20 09:24:12;;;;;;;3.50;3.20;;;;;;;-146.25;100.00;57403.91;5027910;28;20238;-86
2023/06/20 09:26:40;;;;;;;2.90;2.70;;;;;;;-146.25;100.00;57403.91;5027465;28;20694;-85
2023/06/20 09:29:09;;;;;;;3.78;3.47;;;;;;;-146.25;100.00;57403.91;5027236;28;20231;-84
2023/06/20 09:31:44;;;;;;;5.38;3.63;;;;;;;-146.25;100.00;57403.91;5027109;28;20228;-86
2023/06/20 09:34:14;;;;;;;2.85;2.72;;;;;;;-146.25;100.00;57403.91;5027220;28;20231;-83
2023/06/20 09:36:41;;;;;;;3.15;2.95;;;;;;;-146.25;100.00;57403.91;5027133;28;20243;-85
2023/06/20 09:39:15;;;;;;;3.55;3.35;;;;;;;-146.25;100.00;57403.91;5026369;28;20355;-87
2023/06/20 09:41:46;;;;;;;3.65;3.42;;;;;;;-146.25;100.00;57403.91;5026714;28;20285;-86
2023/06/20 09:44:14;;;;;;;3.47;3.28;;;;;;;-146.25;100.00;57403.91;5026798;28;20719;-85
2023/06/20 09:46:42;;;;;;;3.35;3.15;;;;;;;-146.25;100.00;57403.91;5027534;28;20742;-85
2023/06/20 09:49:11;;;;;;;3.60;3.30;;;;;;;-146.25;100.00;57403.91;5027263;28;20259;-87
2023/06/20 09:51:49;;;;;;;3.40;3.20;;;;;;;-146.25;100.00;57403.91;5027492;28;20239;-87
2023/06/20 09:54:28;;;;;;;3.33;3.15;;;;;;;-146.25;100.00;57403.91;5029249;28;20223;-86
2023/06/20 09:57:02;;;;;;;3.47;3.17;;;;;;;-146.25;100.00;57403.91;5028776;28;20303;-85
2023/06/20 09:59:32;;;;;;;3.25;3.05;;;;;;;-146.25;100.00;57403.91;5028657;28;20223;-86
2023/06/20 10:02:02;;;;;;;3.42;3.22;;;;;;;-146.25;100.00;57403.91;5027702;28;20223;-86
2023/06/20 10:04:39;;;;;;;3.42;3.22;;;;;;;-146.25;100.00;57403.91;5028632;28;20320;-86
2023/06/20 10:07:07;;;;;;;3.35;3.10;;;;;;;-146.25;100.00;57403.91;5029915;28;20297;-87
2023/06/20 10:09:34;;;;;;;3.67;3.38;;;;;;;-146.25;100.00;57403.91;5030838;28;20686;-87
2023/06/20 10:12:02;;;;;;;3.20;3.00;;;;;;;-146.25;100.00;57403.91;5032600;28;20262;-87
2023/06/20 10:14:30;;;;;;;3.75;3.42;;;;;;;-146.25;100.00;57403.91;5031584;28;20231;-85
2023/06/20 10:17:06;;;;;;;3.75;3.55;;;;;;;-146.25;100.00;57403.91;5032404;28;20228;-86
2023/06/20 10:19:47;;;;;;;3.50;3.30;;;;;;;-146.25;100.00;57403.91;5031810;28;20281;-87
2023/06/20 10:22:32;;;;;;;3.55;3.25;;;;;;;-146.25;100.00;57403.91;5035183;28;20243;-87
2023/06/20 10:25:03;;;;;;;3.80;3.38;;;;;;;-146.25;100.00;57403.91;5050632;28;20637;-87
2023/06/20 10:27:30;;;;;;;3.42;3.22;;;;;;;-146.25;100.00;57403.91;5050748;28;20227;-85
2023/06/20 10:29:57;;;;;;;3.53;3.33;;;;;;;-146.25;100.00;57403.91;5050486;28;20308;-86
2023/06/20 10:32:24;;;;;;;3.50;3.20;;;;;;;-146.25;100.00;57403.91;5051145;28;20222;-86
2023/06/20 10:34:53;;;;;;;3.10;3.00;;;;;;;-146.25;100.00;57403.91;5049996;28;20220;-85
2023/06/20 10:37:38;;;;;;;3.50;3.30;;;;;;;-146.25;100.00;57403.91;5049492;28;20553;-88
2023/06/20 10:40:08;;;;;;;3.85;3.10;;;;;;;-146.25;100.00;57403.91;5050609;28;20238;-87
2023/06/20 10:42:41;;;;;;;3.80;3.47;;;;;;;-146.25;100.00;57403.91;5050726;28;20230;-86
2023/06/20 10:45:18;;;;;;;3.50;3.22;;;;;;;-146.25;100.00;57403.91;5049397;28;20243;-87
2023/06/20 10:47:46;;;;;;;3.85;3.55;;;;;;;-146.25;100.00;57403.91;5051557;28;20300;-86
2023/06/20 10:50:13;;;;;;;3.28;3.08;;;;;;;-146.25;100.00;57403.91;5050182;28;20342;-86
2023/06/20 10:52:42;;;;;;;3.80;3.50;;;;;;;-146.25;100.00;57403.91;5048522;28;20621;-83
2023/06/20 10:55:10;;;;;;;3.17;2.97;;;;;;;-146.25;100.00;57403.91;5050443;28;20631;-85
2023/06/20 10:57:43;;;;;;;3.33;3.13;;;;;;;-146.25;100.00;57403.91;5051039;28;20281;-84
2023/06/20 11:00:13;;;;;;;3.53;3.33;;;;;;;-146.25;100.00;57403.91;5056113;28;20253;-84
2023/06/20 11:02:41;;;;;;;3.22;3.05;;;;;;;-146.25;100.00;57403.91;5047800;28;20215;-87
2023/06/20 11:05:10;;;;;;;3.28;2.92;;;;;;;-146.25;100.00;57403.91;5049960;28;20239;-87
2023/06/20 11:07:58;;;;;;;2.97;2.80;;;;;;;-146.25;100.00;57403.91;5050391;28;20297;-87
2023/06/20 11:10:28;;;;;;;3.33;3.05;;;;;;;-146.25;100.00;57403.91;5048798;28;20333;-86
2023/06/20 11:12:56;;;;;;;3.95;3.65;;;;;;;-146.25;100.00;57403.91;5048560;28;20223;-85
2023/06/20 11:15:26;;;;;;;3.42;3.13;;;;;;;-146.25;100.00;57403.91;5049825;28;20344;-87
2023/06/20 11:17:55;;;;;;;3.55;3.30;;;;;;;-146.25;100.00;57403.91;5049829;28;20219;-87